Time;durP1;ratioP1;P1;durP2;ratioP2;P2;SDS_P1;SDS_P2;PMS_P1;PMS_P2;Temp;Humidity;BMP_temperature;BMP_pressure;BME280_temperature;BME280_humidity;BME280_pressure;Samples;Min_cycle;Max_cycle;Signal;HPM_P1;HPM_P2
2022/07/01 00:02:11;;;;;;;6.20;1.65;;;16.50;99.90;;;;;;5120713;27;20095;-76
2022/07/01 00:04:37;;;;;;;4.50;1.80;;;16.50;99.90;;;;;;5119984;27;20473;-76
2022/07/01 00:07:03;;;;;;;1.95;1.38;;;16.50;99.90;;;;;;5121108;27;20052;-77
2022/07/01 00:09:29;;;;;;;2.42;1.20;;;16.50;99.90;;;;;;5121947;27;20039;-76
2022/07/01 00:11:54;;;;;;;5.03;1.17;;;16.50;99.90;;;;;;5123269;27;20051;-76
2022/07/01 00:14:22;;;;;;;1.95;0.90;;;16.50;99.90;;;;;;5125090;27;20138;-77
2022/07/01 00:16:49;;;;;;;4.03;1.20;;;16.40;99.90;;;;;;5125028;27;20108;-76
2022/07/01 00:19:15;;;;;;;2.83;0.98;;;16.40;99.90;;;;;;5125471;27;20583;-76
2022/07/01 00:21:41;;;;;;;5.97;1.88;;;16.40;99.90;;;;;;5122275;27;20147;-76
2022/07/01 00:24:07;;;;;;;4.57;1.20;;;16.40;99.90;;;;;;5120319;27;20046;-76
2022/07/01 00:26:33;;;;;;;6.18;2.17;;;16.30;99.90;;;;;;5122018;27;20058;-76
2022/07/01 00:28:58;;;;;;;1.60;0.82;;;16.30;99.90;;;;;;5123860;27;20043;-76
2022/07/01 00:31:24;;;;;;;9.65;1.30;;;16.20;99.90;;;;;;5122402;27;20517;-76
2022/07/01 00:33:50;;;;;;;13.27;1.52;;;16.20;99.90;;;;;;5119477;27;20043;-77
2022/07/01 00:36:16;;;;;;;2.35;1.10;;;16.20;99.90;;;;;;5121066;27;20047;-76
2022/07/01 00:38:42;;;;;;;7.65;1.17;;;16.10;99.90;;;;;;5120083;27;20092;-76
2022/07/01 00:41:07;;;;;;;3.10;0.93;;;16.10;99.90;;;;;;5119647;27;20054;-76
2022/07/01 00:43:38;;;;;;;6.55;1.42;;;16.10;99.90;;;;;;5124492;27;20607;-77
2022/07/01 00:46:04;;;;;;;3.88;1.25;;;16.10;99.90;;;;;;5119995;27;20035;-76
2022/07/01 00:48:32;;;;;;;5.97;1.98;;;16.10;99.90;;;;;;5121382;27;20046;-77
2022/07/01 00:50:58;;;;;;;5.22;1.38;;;16.00;99.90;;;;;;5120984;27;20093;-77
2022/07/01 00:53:24;;;;;;;7.53;1.50;;;16.00;99.90;;;;;;5121833;27;20455;-76
2022/07/01 00:55:50;;;;;;;12.20;2.83;;;16.00;99.90;;;;;;5123438;27;20039;-76
2022/07/01 00:58:16;;;;;;;5.90;1.52;;;16.00;99.90;;;;;;5121064;27;20517;-76
2022/07/01 01:00:42;;;;;;;8.20;2.35;;;16.00;99.90;;;;;;5121779;27;20082;-76
2022/07/01 01:03:11;;;;;;;4.88;1.45;;;15.90;99.90;;;;;;5121374;27;20813;-76
2022/07/01 01:05:41;;;;;;;8.48;1.92;;;16.00;99.90;;;;;;5123366;27;20051;-77
2022/07/01 01:08:10;;;;;;;11.93;1.77;;;16.00;99.90;;;;;;5136698;27;20552;-76
2022/07/01 01:10:37;;;;;;;16.42;2.30;;;16.00;99.90;;;;;;5124532;27;20511;-76
2022/07/01 01:13:04;;;;;;;10.52;1.85;;;16.00;99.90;;;;;;5121551;27;20036;-77
2022/07/01 01:15:31;;;;;;;7.80;1.33;;;15.90;99.90;;;;;;5120944;27;20599;-76
2022/07/01 01:17:57;;;;;;;13.98;2.30;;;15.90;99.90;;;;;;5119058;27;20524;-77
2022/07/01 01:20:22;;;;;;;9.20;1.70;;;15.90;99.90;;;;;;5119241;27;20046;-77
2022/07/01 01:22:49;;;;;;;15.07;2.38;;;15.80;99.90;;;;;;5120558;27;20040;-77
2022/07/01 01:25:15;;;;;;;6.47;3.83;;;15.70;99.90;;;;;;5117955;27;20031;-76
2022/07/01 01:27:41;;;;;;;19.08;2.40;;;15.70;99.90;;;;;;5121656;27;20135;-76
2022/07/01 01:30:10;;;;;;;9.70;2.00;;;15.70;99.90;;;;;;5114371;27;20093;-76
2022/07/01 01:32:36;;;;;;;12.60;2.72;;;15.60;99.90;;;;;;5121532;27;20648;-76
2022/07/01 01:35:02;;;;;;;9.15;1.90;;;15.60;99.90;;;;;;5120641;27;20050;-76
2022/07/01 01:37:28;;;;;;;11.30;2.70;;;15.60;99.90;;;;;;5120886;27;20046;-76
2022/07/01 01:39:54;;;;;;;12.88;3.10;;;15.50;99.90;;;;;;5120352;27;20532;-77
2022/07/01 01:42:21;;;;;;;7.70;2.28;;;15.50;99.90;;;;;;5120966;27;20044;-77
2022/07/01 01:44:47;;;;;;;5.45;1.45;;;15.50;99.90;;;;;;5120093;27;20046;-77
2022/07/01 01:47:12;;;;;;;18.30;2.85;;;15.50;99.90;;;;;;5118857;27;20042;-76
2022/07/01 01:49:38;;;;;;;11.00;1.90;;;15.40;99.90;;;;;;5119354;27;20058;-76
2022/07/01 01:52:04;;;;;;;11.32;1.88;;;15.40;99.90;;;;;;5118456;27;20050;-76
2022/07/01 01:54:30;;;;;;;4.65;1.75;;;15.40;99.90;;;;;;5120876;27;20070;-76
2022/07/01 01:56:56;;;;;;;8.70;1.73;;;15.40;99.90;;;;;;5122577;27;20058;-77
2022/07/01 01:59:22;;;;;;;5.57;1.55;;;15.30;99.90;;;;;;5102780;27;20036;-77
2022/07/01 02:01:48;;;;;;;9.65;3.40;;;15.40;99.90;;;;;;5119630;27;20059;-76
2022/07/01 02:04:13;;;;;;;7.75;1.20;;;15.30;99.90;;;;;;5113588;27;20115;-76
2022/07/01 02:06:42;;;;;;;5.68;2.30;;;15.30;99.90;;;;;;5121934;27;20112;-76
2022/07/01 02:09:11;;;;;;;4.05;1.17;;;15.30;99.90;;;;;;5118521;27;20035;-76
2022/07/01 02:11:37;;;;;;;4.35;1.33;;;15.30;99.90;;;;;;5122266;27;20591;-76
2022/07/01 02:14:03;;;;;;;7.40;1.75;;;15.20;99.90;;;;;;5118138;27;20040;-77
2022/07/01 02:16:28;;;;;;;4.47;1.25;;;15.20;99.90;;;;;;5121095;27;20044;-76
2022/07/01 02:18:54;;;;;;;6.13;1.25;;;15.20;99.90;;;;;;5117798;27;20073;-76
2022/07/01 02:21:20;;;;;;;2.10;1.13;;;15.20;99.90;;;;;;5118521;27;20084;-76
2022/07/01 02:23:46;;;;;;;1.42;1.02;;;15.10;99.90;;;;;;5118929;27;20048;-76
2022/07/01 02:26:12;;;;;;;2.95;1.25;;;15.10;99.90;;;;;;5122178;27;20047;-76
2022/07/01 02:28:38;;;;;;;1.45;1.00;;;15.10;99.90;;;;;;5123281;27;20112;-76
2022/07/01 02:31:04;;;;;;;5.28;2.42;;;15.10;99.90;;;;;;5117121;27;20429;-76
2022/07/01 02:33:30;;;;;;;2.65;1.10;;;15.10;99.90;;;;;;5118809;27;20042;-76
2022/07/01 02:35:56;;;;;;;2.35;1.48;;;15.00;99.90;;;;;;5119417;27;20058;-76
2022/07/01 02:38:22;;;;;;;6.07;1.35;;;15.00;99.90;;;;;;5120195;27;20130;-76
2022/07/01 02:40:48;;;;;;;4.97;1.75;;;15.00;99.90;;;;;;5120234;27;20424;-74
2022/07/01 02:43:15;;;;;;;2.50;1.35;;;15.00;99.90;;;;;;5121141;27;20497;-75
2022/07/01 02:45:41;;;;;;;5.07;0.82;;;15.00;99.90;;;;;;5117204;27;20512;-76
2022/07/01 02:48:08;;;;;;;6.90;1.38;;;14.90;99.90;;;;;;5118958;27;20035;-76
2022/07/01 02:50:33;;;;;;;1.08;0.75;;;14.90;99.90;;;;;;5122620;27;20509;-76
2022/07/01 02:52:59;;;;;;;1.52;1.40;;;14.90;99.90;;;;;;5136520;27;20048;-77
2022/07/01 02:55:25;;;;;;;3.45;2.00;;;14.90;99.90;;;;;;5117461;27;20630;-76
2022/07/01 02:57:51;;;;;;;5.82;1.45;;;14.80;99.90;;;;;;5118516;27;20525;-77
2022/07/01 03:00:19;;;;;;;5.50;1.13;;;14.80;99.90;;;;;;5120954;27;20035;-77
2022/07/01 03:02:45;;;;;;;6.53;1.40;;;14.80;99.90;;;;;;5117878;27;20039;-77
2022/07/01 03:05:11;;;;;;;3.95;1.25;;;14.80;99.90;;;;;;5122959;27;20055;-76
2022/07/01 03:07:37;;;;;;;9.27;1.83;;;14.70;99.90;;;;;;5122770;27;20046;-76
2022/07/01 03:10:04;;;;;;;3.22;0.93;;;14.70;99.90;;;;;;5120381;27;20051;-76
2022/07/01 03:12:34;;;;;;;4.80;0.98;;;14.70;99.90;;;;;;5120793;27;20048;-75
2022/07/01 03:15:11;;;;;;;6.10;1.58;;;14.70;99.90;;;;;;5119558;27;20048;-75
2022/07/01 03:17:39;;;;;;;9.20;2.10;;;14.70;99.90;;;;;;5102647;27;20387;-75
2022/07/01 03:20:06;;;;;;;7.75;2.10;;;14.60;99.90;;;;;;5107121;27;20043;-75
2022/07/01 03:22:32;;;;;;;10.95;2.58;;;14.60;99.90;;;;;;5122005;27;20081;-75
2022/07/01 03:24:58;;;;;;;5.70;1.90;;;14.50;99.90;;;;;;5121580;27;20551;-76
2022/07/01 03:27:25;;;;;;;3.08;1.42;;;14.50;99.90;;;;;;5118018;27;20039;-76
2022/07/01 03:29:51;;;;;;;12.65;2.72;;;14.50;99.90;;;;;;5122203;27;20090;-75
2022/07/01 03:32:17;;;;;;;3.38;1.38;;;14.50;99.90;;;;;;5119265;27;20042;-75
2022/07/01 03:34:45;;;;;;;7.05;1.58;;;14.50;99.90;;;;;;5118886;27;20121;-76
2022/07/01 03:37:12;;;;;;;5.15;1.40;;;14.50;99.90;;;;;;5124847;27;20118;-76
2022/07/01 03:39:39;;;;;;;6.18;1.13;;;14.40;99.90;;;;;;5123799;27;20546;-76
2022/07/01 03:42:06;;;;;;;11.32;1.58;;;14.40;99.90;;;;;;5122178;27;20406;-76
2022/07/01 03:44:33;;;;;;;7.70;1.52;;;14.50;99.90;;;;;;5124964;27;20046;-76
2022/07/01 03:46:59;;;;;;;13.70;2.33;;;14.40;99.90;;;;;;5122722;27;20776;-76
2022/07/01 03:49:25;;;;;;;4.43;2.58;;;14.40;99.90;;;;;;5124042;27;20126;-76
2022/07/01 03:51:52;;;;;;;8.20;1.58;;;14.40;99.90;;;;;;5122773;27;20414;-77
2022/07/01 03:54:30;;;;;;;3.30;1.20;;;14.40;99.90;;;;;;5124659;27;20043;-76
2022/07/01 03:57:00;;;;;;;7.60;3.13;;;14.40;99.90;;;;;;5122987;27;20036;-76
2022/07/01 03:59:27;;;;;;;7.60;1.45;;;14.40;99.90;;;;;;5107677;27;20063;-75
2022/07/01 04:01:57;;;;;;;5.80;1.70;;;14.30;99.90;;;;;;5109152;27;21230;-75
2022/07/01 04:04:24;;;;;;;7.57;1.50;;;14.30;99.90;;;;;;5119642;27;20512;-75
2022/07/01 04:06:50;;;;;;;12.45;2.83;;;14.30;99.90;;;;;;5117373;27;20329;-75
2022/07/01 04:09:17;;;;;;;6.53;1.17;;;14.30;99.90;;;;;;5121127;27;20139;-75
2022/07/01 04:11:44;;;;;;;3.45;0.80;;;14.30;99.90;;;;;;5122424;27;20599;-75
2022/07/01 04:14:10;;;;;;;10.05;1.60;;;14.30;99.90;;;;;;5123710;27;20097;-75
2022/07/01 04:16:36;;;;;;;4.80;1.45;;;14.30;99.90;;;;;;5124023;27;20044;-74
2022/07/01 04:19:02;;;;;;;1.10;0.80;;;14.30;99.90;;;;;;5122890;27;20045;-76
2022/07/01 04:24:15;;;;;;;3.65;1.02;;;14.30;99.90;;;;;;5124580;27;20512;-75
2022/07/01 04:26:42;;;;;;;1.33;1.17;;;14.30;99.90;;;;;;5122173;27;21135;-76
2022/07/01 04:29:08;;;;;;;3.78;1.33;;;14.30;99.90;;;;;;5120363;27;20436;-76
2022/07/01 04:31:36;;;;;;;3.72;1.20;;;14.30;99.90;;;;;;5120018;27;20473;-76
2022/07/01 04:34:02;;;;;;;2.97;1.27;;;14.30;99.90;;;;;;5121407;27;20051;-76
2022/07/01 04:36:28;;;;;;;5.45;1.42;;;14.20;99.90;;;;;;5122360;27;20043;-76
2022/07/01 04:38:54;;;;;;;3.55;0.88;;;14.30;99.90;;;;;;5125046;27;20417;-76
2022/07/01 04:44:04;;;;;;;3.15;1.23;;;14.30;99.90;;;;;;5121564;27;20134;-76
2022/07/01 04:46:30;;;;;;;3.85;1.90;;;14.20;99.90;;;;;;5117536;27;20476;-76
2022/07/01 04:48:56;;;;;;;5.15;1.42;;;14.30;99.90;;;;;;5113928;27;20502;-76
2022/07/01 04:51:22;;;;;;;1.90;1.00;;;14.20;99.90;;;;;;5119859;27;20507;-76
2022/07/01 04:53:48;;;;;;;5.78;1.33;;;14.30;99.90;;;;;;5121384;27;20036;-77
2022/07/01 04:56:14;;;;;;;7.63;1.98;;;14.30;99.90;;;;;;5122069;27;20088;-76
2022/07/01 04:58:40;;;;;;;3.58;2.33;;;14.30;99.90;;;;;;5118016;27;20458;-76
2022/07/01 05:01:06;;;;;;;5.25;1.83;;;14.30;99.90;;;;;;5124767;27;20039;-76
2022/07/01 05:03:32;;;;;;;7.55;1.15;;;14.30;99.90;;;;;;5118628;27;20067;-77
2022/07/01 05:05:58;;;;;;;2.20;1.02;;;14.30;99.90;;;;;;5117478;27;20548;-76
2022/07/01 05:08:23;;;;;;;1.65;1.15;;;14.30;99.90;;;;;;5121747;27;20039;-76
2022/07/01 05:10:49;;;;;;;5.38;1.48;;;14.30;99.90;;;;;;5121003;27;20080;-75
2022/07/01 05:13:15;;;;;;;5.07;1.50;;;14.30;99.90;;;;;;5119061;27;20039;-76
2022/07/01 05:15:41;;;;;;;4.40;1.00;;;14.30;99.90;;;;;;5119920;27;20047;-76
2022/07/01 05:23:35;;;;;;;2.88;1.15;;;14.30;99.90;;;;;;5120304;27;20090;-77
2022/07/01 05:26:02;;;;;;;2.13;1.13;;;14.30;99.90;;;;;;5120073;27;20087;-77
2022/07/01 05:28:27;;;;;;;4.85;1.00;;;14.30;99.90;;;;;;5121339;27;20046;-79
2022/07/01 05:30:53;;;;;;;6.78;2.53;;;14.30;99.90;;;;;;5122202;27;20074;-79
2022/07/01 05:33:21;;;;;;;3.15;1.55;;;14.30;99.90;;;;;;5123344;27;20052;-78
2022/07/01 05:35:47;;;;;;;3.03;0.82;;;14.30;99.90;;;;;;5122300;27;20038;-78
2022/07/01 05:38:13;;;;;;;3.00;1.35;;;14.40;99.90;;;;;;5123284;27;20118;-78
2022/07/01 05:40:39;;;;;;;7.78;2.92;;;14.40;99.90;;;;;;5122256;27;20530;-78
2022/07/01 05:43:05;;;;;;;1.35;0.90;;;14.50;99.90;;;;;;5104549;27;20896;-78
2022/07/01 05:45:30;;;;;;;5.60;1.38;;;14.40;99.90;;;;;;5120423;27;20043;-78
2022/07/01 05:47:56;;;;;;;4.30;0.93;;;14.40;99.90;;;;;;5118064;27;20055;-78
2022/07/01 05:50:23;;;;;;;5.43;1.17;;;14.40;99.90;;;;;;5107915;27;20035;-78
2022/07/01 05:52:49;;;;;;;6.50;1.98;;;14.50;99.90;;;;;;5119535;27;20066;-78
2022/07/01 05:55:15;;;;;;;18.23;1.45;;;14.40;99.90;;;;;;5124288;27;20067;-78
2022/07/01 05:57:41;;;;;;;5.97;1.80;;;14.50;99.90;;;;;;5124444;27;20602;-78
2022/07/01 06:00:09;;;;;;;6.22;1.23;;;14.50;99.90;;;;;;5123839;27;20100;-78
2022/07/01 06:02:35;;;;;;;5.18;0.95;;;14.70;99.90;;;;;;5117656;27;20106;-79
2022/07/01 06:05:02;;;;;;;7.70;1.00;;;14.50;99.90;;;;;;5115925;27;20050;-78
2022/07/01 06:07:28;;;;;;;9.52;1.58;;;14.50;99.90;;;;;;5120208;27;20513;-77
2022/07/01 06:09:55;;;;;;;5.10;1.20;;;14.50;99.90;;;;;;5123758;27;20047;-76
2022/07/01 06:12:21;;;;;;;8.32;1.33;;;14.60;99.90;;;;;;5120376;27;20044;-76
2022/07/01 06:14:47;;;;;;;1.23;0.85;;;14.50;99.90;;;;;;5122378;27;20463;-77
2022/07/01 06:17:13;;;;;;;8.55;1.55;;;14.60;99.90;;;;;;5121893;27;20552;-77
2022/07/01 06:19:39;;;;;;;5.85;1.30;;;14.60;99.90;;;;;;5124879;27;20532;-80
2022/07/01 06:22:05;;;;;;;6.05;1.50;;;14.60;99.90;;;;;;5123572;27;20039;-80
2022/07/01 06:24:32;;;;;;;4.03;1.23;;;14.70;99.90;;;;;;5121022;27;20038;-79
2022/07/01 06:26:58;;;;;;;4.63;1.30;;;14.70;99.90;;;;;;5117576;27;20131;-79
2022/07/01 06:29:24;;;;;;;6.97;1.58;;;14.70;99.90;;;;;;5121867;27;20075;-79
2022/07/01 06:31:49;;;;;;;4.38;1.40;;;14.70;99.90;;;;;;5113942;27;20043;-79
2022/07/01 06:34:15;;;;;;;2.63;0.93;;;14.70;99.90;;;;;;5122871;27;20153;-79
2022/07/01 06:36:41;;;;;;;11.65;3.10;;;14.70;99.90;;;;;;5114333;27;20138;-80
2022/07/01 06:39:06;;;;;;;6.30;2.30;;;14.70;99.90;;;;;;5113891;27;20043;-79
2022/07/01 06:41:32;;;;;;;5.93;1.35;;;14.80;99.90;;;;;;5115221;27;20413;-78
2022/07/01 06:44:00;;;;;;;8.30;1.38;;;14.80;99.90;;;;;;5115539;27;21056;-78
2022/07/01 06:46:27;;;;;;;4.10;1.67;;;14.80;99.90;;;;;;5116359;27;20040;-80
2022/07/01 06:48:53;;;;;;;6.90;1.65;;;14.80;99.90;;;;;;5106946;27;20031;-80
2022/07/01 06:51:19;;;;;;;10.23;2.50;;;14.80;99.90;;;;;;5111713;27;20066;-80
2022/07/01 06:53:46;;;;;;;3.38;1.00;;;14.80;99.90;;;;;;5111092;27;20035;-80
2022/07/01 06:56:13;;;;;;;5.57;1.60;;;14.90;99.90;;;;;;5117661;27;20516;-80
2022/07/01 06:58:40;;;;;;;3.85;1.27;;;14.90;99.90;;;;;;5115128;27;20039;-80
2022/07/01 07:01:06;;;;;;;6.43;1.55;;;14.90;99.90;;;;;;5120242;27;20039;-80
2022/07/01 07:03:32;;;;;;;3.50;0.90;;;14.90;99.90;;;;;;5120026;27;20046;-80
2022/07/01 07:06:02;;;;;;;5.85;1.40;;;15.00;99.90;;;;;;5122809;27;20647;-80
2022/07/01 07:08:32;;;;;;;2.25;1.08;;;15.10;99.90;;;;;;5125741;27;20039;-80
2022/07/01 07:10:58;;;;;;;7.30;1.20;;;15.00;99.90;;;;;;5130136;27;20100;-79
2022/07/01 07:13:24;;;;;;;4.53;1.05;;;15.00;99.90;;;;;;5134344;27;20528;-79
2022/07/01 07:15:50;;;;;;;2.83;0.95;;;15.00;99.90;;;;;;5131531;27;20039;-80
2022/07/01 07:18:16;;;;;;;6.53;1.42;;;15.00;99.90;;;;;;5130698;27;20055;-79
2022/07/01 07:20:42;;;;;;;7.50;1.48;;;15.00;99.90;;;;;;5126178;27;20237;-79
2022/07/01 07:23:08;;;;;;;1.75;1.15;;;15.10;99.90;;;;;;5126960;27;20043;-80
2022/07/01 07:25:34;;;;;;;4.43;1.23;;;15.10;99.90;;;;;;5123620;27;20131;-79
2022/07/01 07:27:59;;;;;;;5.00;1.30;;;15.10;99.90;;;;;;5126503;27;20744;-81
2022/07/01 07:30:25;;;;;;;1.55;0.70;;;15.10;99.90;;;;;;5124365;27;20425;-80
2022/07/01 07:32:51;;;;;;;1.35;0.80;;;15.20;99.90;;;;;;5121419;27;20071;-81
2022/07/01 07:35:17;;;;;;;6.93;1.00;;;15.20;99.90;;;;;;5125374;27;20528;-79
2022/07/01 07:37:43;;;;;;;7.18;2.08;;;15.20;99.90;;;;;;5124880;27;20036;-79
2022/07/01 07:40:12;;;;;;;4.05;1.33;;;15.20;99.90;;;;;;5124023;27;20571;-80
2022/07/01 07:42:38;;;;;;;2.25;0.70;;;15.30;99.90;;;;;;5125151;27;20138;-79
2022/07/01 07:45:08;;;;;;;4.78;0.93;;;15.30;99.90;;;;;;5123526;27;20050;-80
2022/07/01 07:47:35;;;;;;;10.05;0.95;;;15.30;99.90;;;;;;5126799;27;20081;-80
2022/07/01 07:50:01;;;;;;;2.47;0.85;;;15.30;99.90;;;;;;5128010;27;20930;-79
2022/07/01 07:52:27;;;;;;;3.83;0.70;;;15.40;99.90;;;;;;5125240;27;20118;-80
2022/07/01 07:54:53;;;;;;;3.45;0.82;;;15.40;99.90;;;;;;5126321;27;20130;-80
2022/07/01 07:57:19;;;;;;;2.75;0.90;;;15.40;99.90;;;;;;5123308;27;20448;-80
2022/07/01 07:59:44;;;;;;;2.80;1.05;;;15.50;99.90;;;;;;5124033;27;20042;-80
2022/07/01 08:02:10;;;;;;;4.70;1.08;;;15.50;99.90;;;;;;5124139;27;20035;-80
2022/07/01 08:04:36;;;;;;;5.47;1.10;;;15.60;99.90;;;;;;5144206;27;20600;-80
2022/07/01 08:07:02;;;;;;;1.95;1.23;;;15.70;99.90;;;;;;5127883;27;20054;-80
2022/07/01 08:09:28;;;;;;;4.47;0.82;;;15.80;99.90;;;;;;5124358;27;20081;-80
2022/07/01 08:11:54;;;;;;;4.70;1.02;;;16.00;99.90;;;;;;5122161;27;20142;-80
2022/07/01 08:14:20;;;;;;;5.68;1.20;;;16.20;99.90;;;;;;5121658;27;20196;-80
2022/07/01 08:16:46;;;;;;;4.78;0.80;;;16.30;99.90;;;;;;5125542;27;20741;-80
2022/07/01 08:19:11;;;;;;;2.83;1.23;;;16.30;99.90;;;;;;5120486;27;20039;-80
2022/07/01 08:21:37;;;;;;;2.78;1.05;;;16.30;99.90;;;;;;5123842;27;20039;-80
2022/07/01 08:24:03;;;;;;;5.70;1.85;;;16.40;99.90;;;;;;5121990;27;20115;-80
2022/07/01 08:26:30;;;;;;;1.15;0.65;;;16.60;99.90;;;;;;5123941;27;20040;-80
2022/07/01 08:28:56;;;;;;;3.13;1.33;;;16.70;99.90;;;;;;5123862;27;20050;-80
2022/07/01 08:31:22;;;;;;;2.47;0.80;;;16.80;99.90;;;;;;5125467;27;20472;-80
2022/07/01 08:33:47;;;;;;;5.22;1.20;;;16.70;99.90;;;;;;5126302;27;20118;-80
2022/07/01 08:36:16;;;;;;;0.93;0.75;;;16.70;99.90;;;;;;5123517;27;20047;-80
2022/07/01 08:38:42;;;;;;;2.45;0.82;;;16.80;99.90;;;;;;5124628;27;20043;-80
2022/07/01 08:41:07;;;;;;;2.17;0.73;;;16.80;99.90;;;;;;5124694;27;20039;-79
2022/07/01 08:43:36;;;;;;;2.17;0.70;;;16.90;99.90;;;;;;5123952;27;20394;-80
2022/07/01 08:46:02;;;;;;;2.38;0.65;;;17.10;99.90;;;;;;5123411;27;20058;-80
2022/07/01 08:48:28;;;;;;;2.78;0.65;;;17.10;99.90;;;;;;5126096;27;20044;-80
2022/07/01 08:50:54;;;;;;;4.53;1.00;;;17.10;99.90;;;;;;5126394;27;20044;-80
2022/07/01 08:53:20;;;;;;;1.42;0.70;;;16.90;99.90;;;;;;5127436;27;20621;-80
2022/07/01 08:58:31;;;;;;;2.50;0.60;;;16.80;99.90;;;;;;5123338;27;20051;-80
2022/07/01 09:01:13;;;;;;;3.83;0.77;;;16.90;99.90;;;;;;5139410;27;20534;-80
2022/07/01 09:03:38;;;;;;;1.35;0.77;;;16.70;99.90;;;;;;5122210;27;20043;-80
2022/07/01 09:06:13;;;;;;;2.75;0.82;;;17.00;99.90;;;;;;5123249;27;20428;-80
2022/07/01 09:08:38;;;;;;;2.15;0.55;;;16.90;99.90;;;;;;5123972;27;20661;-80
2022/07/01 09:11:19;;;;;;;3.22;1.60;;;16.90;99.90;;;;;;5126861;27;20039;-81
2022/07/01 09:14:03;;;;;;;3.17;0.80;;;17.00;99.90;;;;;;5125579;27;20112;-80
2022/07/01 09:16:29;;;;;;;3.15;1.60;;;16.90;99.90;;;;;;5122799;27;20106;-80
2022/07/01 09:19:03;;;;;;;3.75;0.88;;;17.00;99.90;;;;;;5123602;27;20135;-80
2022/07/01 09:21:32;;;;;;;1.40;0.80;;;17.00;99.90;;;;;;5109662;27;20126;-80
2022/07/01 09:24:24;;;;;;;3.67;0.60;;;17.00;99.90;;;;;;5127995;27;20039;-80
2022/07/01 09:26:56;;;;;;;1.63;0.85;;;17.00;99.90;;;;;;5127059;27;20068;-80
2022/07/01 09:29:32;;;;;;;0.85;0.60;;;17.00;99.90;;;;;;5127670;27;20507;-80
2022/07/01 09:31:59;;;;;;;2.72;0.60;;;17.00;99.90;;;;;;5117324;27;20043;-80
2022/07/01 09:34:25;;;;;;;2.15;0.68;;;17.00;99.90;;;;;;5128293;27;20116;-81
2022/07/01 09:36:57;;;;;;;0.40;0.40;;;17.00;99.90;;;;;;5129102;27;20544;-80
2022/07/01 09:39:23;;;;;;;5.05;1.13;;;17.10;99.90;;;;;;5127134;27;20048;-80
2022/07/01 09:41:53;;;;;;;2.72;0.60;;;17.20;99.90;;;;;;5126034;27;20035;-80
2022/07/01 09:44:19;;;;;;;2.58;1.67;;;17.40;99.90;;;;;;5125871;27;20500;-80
2022/07/01 09:46:55;;;;;;;1.00;0.65;;;17.50;99.90;;;;;;5125867;27;20036;-80
2022/07/01 09:49:22;;;;;;;1.23;0.60;;;17.50;99.90;;;;;;5125882;27;20052;-80
2022/07/01 09:51:50;;;;;;;1.92;1.00;;;17.40;99.90;;;;;;5125447;27;20044;-80
2022/07/01 09:54:16;;;;;;;3.10;0.63;;;17.30;99.90;;;;;;5126961;27;20660;-80
2022/07/01 09:56:42;;;;;;;2.15;0.80;;;17.30;99.90;;;;;;5126670;27;20454;-80
2022/07/01 09:59:08;;;;;;;0.43;0.38;;;17.40;99.90;;;;;;5128397;27;20039;-80
2022/07/01 10:01:34;;;;;;;0.88;0.52;;;17.50;99.90;;;;;;5126786;27;20054;-80
2022/07/01 10:04:03;;;;;;;1.08;0.52;;;17.80;99.90;;;;;;5125462;27;20031;-80
2022/07/01 10:06:46;;;;;;;4.47;0.52;;;18.00;99.90;;;;;;5127798;27;20052;-80
2022/07/01 10:09:31;;;;;;;3.42;0.70;;;18.10;99.90;;;;;;5125682;27;20056;-80
2022/07/01 10:12:35;;;;;;;0.52;0.50;;;18.20;99.90;;;;;;5126215;27;20051;-80
2022/07/01 10:15:04;;;;;;;2.55;1.10;;;18.20;99.90;;;;;;5125793;27;20032;-80
2022/07/01 10:17:50;;;;;;;0.95;0.68;;;18.30;99.90;;;;;;5126128;27;20646;-81
2022/07/01 10:20:18;;;;;;;0.77;0.50;;;18.40;99.90;;;;;;5126230;27;20054;-80
2022/07/01 10:22:45;;;;;;;1.23;0.70;;;18.40;99.90;;;;;;5125354;27;20096;-83
2022/07/01 10:25:46;;;;;;;0.95;0.55;;;18.50;99.90;;;;;;5124295;27;20046;-80
2022/07/01 10:28:27;;;;;;;2.15;0.70;;;18.50;99.90;;;;;;5121844;27;20040;-80
2022/07/01 10:31:02;;;;;;;3.63;0.70;;;18.60;99.90;;;;;;5125308;27;20127;-80
2022/07/01 10:33:42;;;;;;;0.82;0.50;;;18.60;99.90;;;;;;5124468;27;20078;-80
2022/07/01 10:36:16;;;;;;;3.80;1.00;;;18.60;99.90;;;;;;5121342;27;20040;-80
2022/07/01 10:39:08;;;;;;;1.33;0.50;;;18.40;99.90;;;;;;5119871;27;21499;-80
2022/07/01 10:41:39;;;;;;;4.10;0.63;;;18.40;99.90;;;;;;5124399;27;20058;-80
2022/07/01 10:44:10;;;;;;;0.63;0.50;;;18.30;99.90;;;;;;5123634;27;20074;-80
2022/07/01 10:46:46;;;;;;;0.52;0.50;;;18.30;99.90;;;;;;5121240;27;20054;-79
2022/07/01 10:49:40;;;;;;;7.07;1.42;;;18.40;99.90;;;;;;5124828;27;20045;-80
2022/07/01 10:52:09;;;;;;;3.33;0.60;;;18.50;99.90;;;;;;5106805;27;20587;-80
2022/07/01 10:54:39;;;;;;;1.67;0.35;;;18.40;99.90;;;;;;5121997;27;20042;-81
2022/07/01 10:57:19;;;;;;;2.55;1.40;;;18.40;99.90;;;;;;5122482;27;20496;-80
2022/07/01 10:59:51;;;;;;;2.38;0.60;;;18.40;99.90;;;;;;5125508;27;20565;-80
2022/07/01 11:02:25;;;;;;;1.13;0.57;;;18.60;99.90;;;;;;5125754;27;20239;-80
2022/07/01 11:04:56;;;;;;;0.98;0.60;;;18.70;99.90;;;;;;5117583;27;20059;-80
2022/07/01 11:07:25;;;;;;;2.15;0.60;;;18.80;99.90;;;;;;5121208;27;20528;-80
2022/07/01 11:09:51;;;;;;;1.15;0.50;;;18.80;99.90;;;;;;5123899;27;20174;-80
2022/07/01 11:12:19;;;;;;;1.35;0.50;;;18.80;99.90;;;;;;5124523;27;20192;-80
2022/07/01 11:14:45;;;;;;;1.85;0.57;;;18.80;99.90;;;;;;5123298;27;20668;-80
2022/07/01 11:17:11;;;;;;;0.88;0.50;;;19.10;99.90;;;;;;5122824;27;20398;-80
2022/07/01 11:19:37;;;;;;;0.73;0.40;;;19.30;99.90;;;;;;5124872;27;20508;-80
2022/07/01 11:22:05;;;;;;;2.35;0.50;;;19.40;99.90;;;;;;5120653;27;20646;-80
2022/07/01 11:24:31;;;;;;;0.68;0.40;;;19.50;99.70;;;;;;5121538;27;20617;-80
2022/07/01 11:27:06;;;;;;;0.63;0.35;;;19.60;99.20;;;;;;5127065;27;20122;-80
2022/07/01 11:29:31;;;;;;;1.85;0.47;;;19.60;98.70;;;;;;5123156;27;20576;-81
2022/07/01 11:31:57;;;;;;;0.30;0.30;;;19.60;98.30;;;;;;5121043;27;20068;-80
2022/07/01 11:34:26;;;;;;;1.40;1.15;;;19.50;98.10;;;;;;5123540;27;20055;-80
2022/07/01 11:39:36;;;;;;;2.67;0.77;;;19.20;97.90;;;;;;5125988;27;21275;-80
2022/07/01 11:42:06;;;;;;;0.38;0.38;;;19.00;97.70;;;;;;5124420;27;20075;-80
2022/07/01 11:44:43;;;;;;;4.20;0.70;;;18.80;97.70;;;;;;5123618;27;20043;-80
2022/07/01 11:47:23;;;;;;;3.75;0.50;;;18.80;97.80;;;;;;5123930;27;20611;-80
2022/07/01 11:49:49;;;;;;;2.30;0.80;;;19.00;97.80;;;;;;5141038;27;20126;-80
2022/07/01 11:52:17;;;;;;;3.83;1.25;;;19.10;97.80;;;;;;5125134;27;20115;-79
2022/07/01 11:54:50;;;;;;;3.38;0.60;;;19.30;97.50;;;;;;5124433;27;20583;-80
2022/07/01 11:57:19;;;;;;;1.83;0.50;;;19.50;97.60;;;;;;5128627;27;20050;-80
2022/07/01 11:59:47;;;;;;;2.15;0.40;;;19.60;97.40;;;;;;5130418;27;20043;-80
2022/07/01 12:02:14;;;;;;;2.53;0.40;;;19.90;97.30;;;;;;5125419;27;20050;-81
2022/07/01 12:04:41;;;;;;;1.15;1.05;;;20.00;96.90;;;;;;5124230;27;20291;-80
2022/07/01 12:07:08;;;;;;;2.40;0.65;;;20.20;96.70;;;;;;5127116;27;20046;-80
2022/07/01 12:09:35;;;;;;;0.52;0.52;;;20.20;96.40;;;;;;5126982;27;21073;-80
2022/07/01 12:12:01;;;;;;;0.20;0.20;;;20.30;96.30;;;;;;5125737;27;20046;-80
2022/07/01 12:14:29;;;;;;;0.52;0.30;;;20.40;96.10;;;;;;5125936;27;20127;-80
2022/07/01 12:16:58;;;;;;;2.17;0.50;;;20.50;95.70;;;;;;5129421;27;20046;-80
2022/07/01 12:19:37;;;;;;;1.88;0.55;;;20.60;95.50;;;;;;5128249;27;20524;-80
2022/07/01 12:22:07;;;;;;;0.70;0.60;;;20.70;95.30;;;;;;5126011;27;20113;-80
2022/07/01 12:24:33;;;;;;;0.70;0.35;;;20.70;95.10;;;;;;5123998;27;20032;-80
2022/07/01 12:26:59;;;;;;;1.17;0.70;;;20.70;94.80;;;;;;5123479;27;20043;-80
2022/07/01 12:29:28;;;;;;;4.00;0.60;;;20.60;94.40;;;;;;5127106;27;20036;-80
2022/07/01 12:31:55;;;;;;;0.47;0.40;;;20.60;94.20;;;;;;5126833;27;20039;-80
2022/07/01 12:34:21;;;;;;;3.03;0.55;;;20.50;94.10;;;;;;5127278;27;20043;-80
2022/07/01 12:36:49;;;;;;;0.80;0.80;;;20.50;93.80;;;;;;5127238;27;20043;-80
2022/07/01 12:39:14;;;;;;;2.10;1.10;;;20.30;93.70;;;;;;5124673;27;20047;-80
2022/07/01 12:41:48;;;;;;;1.45;0.40;;;20.20;93.60;;;;;;5126617;27;20048;-80
2022/07/01 12:44:24;;;;;;;1.10;0.35;;;20.20;93.50;;;;;;5127078;27;20126;-81
2022/07/01 12:46:51;;;;;;;0.65;0.65;;;20.30;93.40;;;;;;5125084;27;20543;-80
2022/07/01 12:49:25;;;;;;;0.88;0.40;;;20.50;93.30;;;;;;5126570;27;20059;-80
2022/07/01 12:51:52;;;;;;;10.85;1.55;;;20.80;93.40;;;;;;5124460;27;20051;-80
2022/07/01 12:54:36;;;;;;;0.65;0.65;;;20.90;92.90;;;;;;5126901;27;20050;-80
2022/07/01 12:57:01;;;;;;;0.52;0.50;;;21.00;92.60;;;;;;5119853;27;20474;-79
2022/07/01 12:59:27;;;;;;;5.05;0.60;;;21.10;92.50;;;;;;5126144;27;20051;-80
2022/07/01 13:01:54;;;;;;;2.65;0.38;;;21.30;92.40;;;;;;5125704;27;20657;-80
2022/07/01 13:04:26;;;;;;;0.80;0.40;;;21.40;92.20;;;;;;5122877;27;20051;-80
2022/07/01 13:06:52;;;;;;;;;;;21.40;92.00;;;;;;5123749;27;20063;-81